Terminal Aerodrome Forecast
Issued by NWS Columbia, SC

Home | Current Version | Previous Version | Text Only | Print | Product List | Glossary On
Versions: 1 2 3 4 5 6 7 8 9 10 11 12 13 14 15 16 17 18 19 20 21 22 23 24 25 26 27 28 29 30 31 32 33 34 35 36 37 38 39 40 41 42
809
FTAK31 PAJN 051140
TAFAGS
TAF
PAGS 051140Z 0512/0612 12009KT P6SM -RA BKN025 OVC040
     FM051900 15011G18KT P6SM -RA SCT020 OVC040
     FM060200 15013G23KT 6SM -RA BR BKN020 OVC035
     FM060900 12014G26KT 6SM RA BR SCT010 OVC025
      AMD LTD TO CLD VIS AND WIND=

USA.gov is the U.S. government's official web portal to all federal, state and local government web resources and services.